Aeroporto :
LOGIN :

Iscrizione | Disclaimer

   EN    FR    IT 

 










Sommario :    VFR   VFR Marginale   IFR   IFR Intensivo   IFR Molto Intensivo
Visibilità : 
Base nubi : 
>= 8 km
>= 3000ft
5 / 8 km
1000 / 3000 ft
1500m / 5 km
500 / 1000 ft
800 / 1500m
200 / 500 ft
< 800m
< 200 ft
Simboli :   Temporali  Nebbia  Neve Forte  Precipitazioni Forti  Vento > 20 kt
SIGMETs :   Varie  Temporali  Ghiacco  Turbolenza  Onda orograficha  Ceneri Vulcaniche






- Altitudine del aeroporto : 37 ft
- Codice IATA : HLY


EGOV - RAF Valley

ULTIMO METAR :
  • 230650Z 17019KT 9999 FEW018 BKN038 12/10 Q1013 TEMPO SCT018 RMK BLU TEMPO WHT

METARs OBSOLETI :
  • 230620Z 16017KT 9999 FEW018 BKN030 12/10 Q1013 TEMPO SCT018 RMK BLU TEMPO WHT
  • 230550Z 18018KT 9999 FEW023 BKN040 13/09 Q1013 NOSIG RMK BLU BLU
  • 230450Z AUTO 19017KT 9999 FEW023/// BKN039/// 13/09 Q1013

TAF AMD TAF EGOV
Valido dal 23 a 07 ore il 23 a 15 ore UTC


230731Z 2307/2315 18018G28KT 9999 FEW020 BKN040
TEMPO 2307/2315 SCT018



MetMap, La meteo Aeronautica in un colpo d'occhio ! - Copyright ORBIFLY Dicembre 2007 - Disclaimer

ORBIFLY MET'MAP TEAM :

Programmazione e sviluppo : Alexandra Zaïnal
Concezione e sviluppo : Baudouin d'Aumeries
Co-Programmazione e sviluppo : Marc-Olivier Méhu
Supporto tecnico e logistico : Manuel Goepfert
Aiuto per la traduzione : Arnaldo La Scala

Contatto : metmap@orbifly.com




FONTI E CREDITI :

   NOAA